Time;durP1;ratioP1;P1;durP2;ratioP2;P2;SDS_P1;SDS_P2;PMS_P1;PMS_P2;Temp;Humidity;BMP_temperature;BMP_pressure;BME280_temperature;BME280_humidity;BME280_pressure;Samples;Min_cycle;Max_cycle;Signal;HPM_P1;HPM_P2
2022/08/07 00:01:32;;;;;;;9.02;5.88;;;12.00;99.90;;;;;;5052893;28;20399;-70
2022/08/07 00:03:58;;;;;;;9.50;5.88;;;12.00;99.90;;;;;;5057280;28;20091;-70
2022/08/07 00:06:24;;;;;;;8.90;6.15;;;12.00;99.90;;;;;;5055617;28;20060;-70
2022/08/07 00:08:50;;;;;;;10.50;6.70;;;12.00;99.90;;;;;;5042151;28;20099;-70
2022/08/07 00:11:16;;;;;;;11.05;6.53;;;12.00;99.90;;;;;;5055662;28;20588;-70
2022/08/07 00:13:44;;;;;;;10.18;6.93;;;12.00;99.90;;;;;;5054071;28;20045;-70
2022/08/07 00:16:10;;;;;;;11.38;7.35;;;12.00;99.90;;;;;;5034418;28;20044;-70
2022/08/07 00:18:36;;;;;;;10.30;6.80;;;12.00;99.90;;;;;;5071435;28;20037;-70
2022/08/07 00:21:04;;;;;;;10.25;6.53;;;11.90;99.90;;;;;;5055852;28;20175;-70
2022/08/07 00:23:32;;;;;;;10.20;6.50;;;11.80;99.90;;;;;;5040131;28;20068;-70
2022/08/07 00:25:59;;;;;;;11.00;6.70;;;11.80;99.90;;;;;;5054446;28;20056;-70
2022/08/07 00:28:25;;;;;;;9.90;6.10;;;11.80;99.90;;;;;;5035331;28;20048;-69
2022/08/07 00:30:51;;;;;;;7.82;5.90;;;11.70;99.90;;;;;;5038256;28;20053;-69
2022/08/07 00:33:17;;;;;;;9.98;6.28;;;11.60;99.90;;;;;;5042040;28;20029;-70
2022/08/07 00:35:43;;;;;;;10.57;6.78;;;11.60;99.90;;;;;;5053592;28;20038;-70
2022/08/07 00:38:08;;;;;;;10.27;7.15;;;11.50;99.90;;;;;;5074668;28;20474;-70
2022/08/07 00:40:35;;;;;;;10.30;6.50;;;11.50;99.90;;;;;;5053925;28;20029;-70
2022/08/07 00:43:00;;;;;;;10.68;6.60;;;11.50;99.90;;;;;;5040168;28;20079;-70
2022/08/07 00:45:27;;;;;;;12.30;6.90;;;11.50;99.90;;;;;;5056682;28;20086;-70
2022/08/07 00:47:53;;;;;;;13.52;7.72;;;11.50;99.90;;;;;;5040501;28;20154;-70
2022/08/07 00:50:18;;;;;;;10.73;7.60;;;11.40;99.90;;;;;;5057892;28;21580;-70
2022/08/07 00:52:44;;;;;;;11.27;7.28;;;11.40;99.90;;;;;;5041513;28;20044;-70
2022/08/07 00:55:10;;;;;;;10.70;6.93;;;11.50;99.90;;;;;;5040754;28;20090;-70
2022/08/07 00:57:36;;;;;;;11.52;6.85;;;11.50;99.90;;;;;;5042875;28;20194;-70
2022/08/07 01:00:07;;;;;;;9.05;6.50;;;11.40;99.90;;;;;;5041343;28;20111;-70
2022/08/07 01:02:34;;;;;;;10.75;6.80;;;11.40;99.90;;;;;;5075157;28;20041;-70
2022/08/07 01:05:04;;;;;;;8.18;6.10;;;11.40;99.90;;;;;;5077574;28;20127;-70
2022/08/07 01:07:31;;;;;;;9.93;7.28;;;11.30;99.90;;;;;;5033125;28;20041;-70
2022/08/07 01:09:57;;;;;;;10.38;6.35;;;11.30;99.90;;;;;;5031964;28;20398;-70
2022/08/07 01:12:23;;;;;;;9.50;6.53;;;11.30;99.90;;;;;;5034942;28;20138;-70
2022/08/07 01:14:49;;;;;;;8.05;5.90;;;11.30;99.90;;;;;;5031349;28;20132;-70
2022/08/07 01:17:14;;;;;;;10.77;7.15;;;11.30;99.90;;;;;;5031018;28;20048;-70
2022/08/07 01:19:41;;;;;;;12.27;6.72;;;11.30;99.90;;;;;;5031438;28;20041;-70
2022/08/07 01:22:07;;;;;;;11.25;7.00;;;11.30;99.90;;;;;;5064663;28;20045;-70
2022/08/07 01:24:33;;;;;;;10.70;6.70;;;11.30;99.90;;;;;;5032845;28;20103;-70
2022/08/07 01:26:59;;;;;;;12.65;7.47;;;11.30;99.90;;;;;;5049953;28;20283;-70
2022/08/07 01:29:27;;;;;;;11.40;7.22;;;11.30;99.90;;;;;;5042370;28;20507;-70
2022/08/07 01:31:53;;;;;;;10.45;7.18;;;11.30;99.90;;;;;;5044732;28;20060;-70
2022/08/07 01:34:19;;;;;;;11.98;7.13;;;11.30;99.90;;;;;;5072170;28;20036;-69
2022/08/07 01:36:50;;;;;;;12.02;6.85;;;11.30;99.90;;;;;;5058820;28;20515;-69
2022/08/07 01:39:16;;;;;;;9.23;6.45;;;11.30;99.90;;;;;;5038676;28;20033;-70
2022/08/07 01:41:42;;;;;;;10.25;7.07;;;11.30;99.90;;;;;;5040642;28;20053;-70
2022/08/07 01:44:09;;;;;;;10.73;7.50;;;11.30;99.90;;;;;;5043318;28;20045;-70
2022/08/07 01:46:35;;;;;;;12.80;7.75;;;11.20;99.90;;;;;;5075549;28;20486;-70
2022/08/07 01:49:01;;;;;;;11.48;6.90;;;11.30;99.90;;;;;;5040993;28;20048;-70
2022/08/07 01:51:29;;;;;;;18.20;7.18;;;11.20;99.90;;;;;;5043001;28;20672;-70
2022/08/07 01:53:57;;;;;;;13.20;7.43;;;11.20;99.90;;;;;;5077714;28;20033;-70
2022/08/07 01:56:50;;;;;;;11.50;7.50;;;11.10;99.90;;;;;;5076187;28;20033;-69
2022/08/07 01:59:27;;;;;;;10.35;6.50;;;11.10;99.90;;;;;;5053535;28;20061;-70
2022/08/07 02:01:57;;;;;;;11.30;7.13;;;11.10;99.90;;;;;;5039011;28;20589;-69
2022/08/07 02:04:29;;;;;;;10.98;7.03;;;11.10;99.90;;;;;;5040861;28;20052;-70
2022/08/07 02:06:57;;;;;;;10.93;6.85;;;11.10;99.90;;;;;;5054314;28;20506;-70
2022/08/07 02:09:25;;;;;;;11.38;7.65;;;11.10;99.90;;;;;;5055764;28;20464;-69
2022/08/07 02:11:53;;;;;;;13.48;7.22;;;11.10;99.90;;;;;;5039983;28;20041;-70
2022/08/07 02:14:20;;;;;;;12.18;7.15;;;11.10;99.90;;;;;;5074162;28;20034;-70
2022/08/07 02:16:49;;;;;;;12.15;7.30;;;11.20;99.90;;;;;;5038730;28;20051;-70
2022/08/07 02:19:16;;;;;;;10.13;7.13;;;11.20;99.90;;;;;;5076162;28;20041;-69
2022/08/07 02:21:43;;;;;;;10.75;6.80;;;11.20;99.90;;;;;;5059550;28;20795;-70
2022/08/07 02:24:11;;;;;;;10.32;7.40;;;11.20;99.90;;;;;;5056179;28;20517;-70
2022/08/07 02:26:38;;;;;;;12.60;7.13;;;11.20;99.90;;;;;;5041570;28;20047;-70
2022/08/07 02:29:07;;;;;;;11.73;6.65;;;11.20;99.90;;;;;;5073770;28;20128;-69
2022/08/07 02:31:33;;;;;;;10.10;6.88;;;11.30;99.90;;;;;;5040624;28;20116;-70
2022/08/07 02:34:02;;;;;;;11.73;6.38;;;11.20;99.90;;;;;;5056447;28;20491;-70
2022/08/07 02:36:28;;;;;;;9.98;7.18;;;11.20;99.90;;;;;;5041431;28;20110;-70
2022/08/07 02:38:57;;;;;;;10.43;6.80;;;11.20;99.90;;;;;;5055196;28;20124;-70
2022/08/07 02:41:23;;;;;;;11.57;7.07;;;11.20;99.90;;;;;;5040834;28;20041;-70
2022/08/07 02:43:51;;;;;;;11.60;7.47;;;11.20;99.90;;;;;;5059429;28;20040;-70
2022/08/07 02:46:19;;;;;;;12.10;7.30;;;11.10;99.90;;;;;;5041260;28;20080;-70
2022/08/07 02:48:45;;;;;;;13.50;7.47;;;11.10;99.90;;;;;;5075272;28;20051;-70
2022/08/07 02:51:15;;;;;;;12.65;8.27;;;11.10;99.90;;;;;;5041491;28;20036;-70
2022/08/07 02:53:42;;;;;;;14.13;8.20;;;11.10;99.90;;;;;;5057358;28;20507;-70
2022/08/07 02:56:18;;;;;;;13.32;8.98;;;11.00;99.90;;;;;;5069791;28;20041;-70
2022/08/07 02:58:45;;;;;;;12.82;8.32;;;11.00;99.90;;;;;;5039319;28;20052;-69
2022/08/07 03:01:11;;;;;;;11.77;8.20;;;10.90;99.90;;;;;;5039459;28;20437;-70
2022/08/07 03:03:38;;;;;;;14.90;7.78;;;10.90;99.90;;;;;;5042227;28;20137;-70
2022/08/07 03:06:05;;;;;;;13.10;7.25;;;10.80;99.90;;;;;;5038081;28;20055;-70
2022/08/07 03:08:32;;;;;;;12.60;7.65;;;10.80;99.90;;;;;;5056845;28;20098;-70
2022/08/07 03:10:59;;;;;;;12.80;7.40;;;10.80;99.90;;;;;;5041448;28;20107;-70
2022/08/07 03:13:25;;;;;;;13.13;8.10;;;10.70;99.90;;;;;;5056477;28;20482;-69
2022/08/07 03:15:51;;;;;;;13.05;8.30;;;10.60;99.90;;;;;;5039730;28;20040;-70
2022/08/07 03:18:17;;;;;;;12.15;8.27;;;10.60;99.90;;;;;;5039342;28;20096;-70
2022/08/07 03:20:44;;;;;;;15.00;8.98;;;10.50;99.90;;;;;;5038498;28;20069;-70
2022/08/07 03:23:11;;;;;;;13.65;8.63;;;10.40;99.90;;;;;;5058068;28;20079;-69
2022/08/07 03:25:40;;;;;;;12.98;7.90;;;10.40;99.90;;;;;;5040651;28;20617;-70
2022/08/07 03:28:12;;;;;;;10.50;7.47;;;10.40;99.90;;;;;;5073753;28;20028;-69
2022/08/07 03:30:39;;;;;;;14.48;8.88;;;10.40;99.90;;;;;;5074072;28;20041;-70
2022/08/07 03:33:07;;;;;;;12.40;8.30;;;10.40;99.90;;;;;;5041593;28;20041;-69
2022/08/07 03:35:36;;;;;;;14.13;8.20;;;10.40;99.90;;;;;;5056920;28;20045;-69
2022/08/07 03:38:06;;;;;;;12.77;7.28;;;10.40;99.90;;;;;;5043214;28;20079;-70
2022/08/07 03:40:32;;;;;;;15.02;9.45;;;10.40;99.90;;;;;;5073833;28;20276;-70
2022/08/07 03:42:59;;;;;;;13.57;8.65;;;10.40;99.90;;;;;;5041722;28;20079;-70
2022/08/07 03:45:27;;;;;;;14.48;8.07;;;10.40;99.90;;;;;;5057000;28;20037;-70
2022/08/07 03:47:53;;;;;;;15.50;8.60;;;10.40;99.90;;;;;;5071592;28;20040;-70
2022/08/07 03:50:19;;;;;;;13.57;8.80;;;10.40;99.90;;;;;;5056145;28;20036;-70
2022/08/07 03:52:47;;;;;;;13.20;8.23;;;10.40;99.90;;;;;;5038421;28;20121;-70
2022/08/07 03:55:13;;;;;;;13.70;8.18;;;10.40;99.90;;;;;;5041103;28;20037;-69
2022/08/07 03:57:40;;;;;;;12.68;8.43;;;10.40;99.90;;;;;;5037827;28;20510;-69
2022/08/07 04:00:07;;;;;;;14.00;8.65;;;10.40;99.90;;;;;;5074417;28;20041;-69
2022/08/07 04:02:34;;;;;;;14.57;9.07;;;10.30;99.90;;;;;;5041169;28;20156;-69
2022/08/07 04:04:59;;;;;;;15.48;8.80;;;10.40;99.90;;;;;;5055836;28;21713;-69
2022/08/07 04:07:25;;;;;;;13.05;8.13;;;10.40;99.90;;;;;;5056391;28;20487;-70
2022/08/07 04:09:52;;;;;;;15.90;8.15;;;10.40;99.90;;;;;;5041438;28;20110;-69
2022/08/07 04:12:18;;;;;;;13.90;8.02;;;10.40;99.90;;;;;;5038902;28;20039;-69
2022/08/07 04:14:44;;;;;;;11.32;7.40;;;10.30;99.90;;;;;;5039793;28;20064;-69
2022/08/07 04:17:10;;;;;;;12.57;8.38;;;10.40;99.90;;;;;;5073051;28;20073;-70
2022/08/07 04:19:40;;;;;;;14.88;8.70;;;10.40;99.90;;;;;;5042184;28;20033;-70
2022/08/07 04:22:06;;;;;;;15.23;8.80;;;10.30;99.90;;;;;;5040687;28;20053;-70
2022/08/07 04:24:32;;;;;;;13.38;8.40;;;10.30;99.90;;;;;;5074860;28;20401;-70
2022/08/07 04:27:01;;;;;;;15.32;8.68;;;10.40;99.90;;;;;;5041341;28;20064;-70
2022/08/07 04:29:27;;;;;;;15.43;8.38;;;10.30;99.90;;;;;;5044493;28;20037;-70
2022/08/07 04:31:57;;;;;;;12.80;8.65;;;10.30;99.90;;;;;;5074407;28;20065;-70
2022/08/07 04:34:23;;;;;;;15.40;8.15;;;10.40;99.90;;;;;;5054404;28;20032;-69
2022/08/07 04:36:49;;;;;;;16.05;9.32;;;10.30;99.90;;;;;;5042463;28;20037;-70
2022/08/07 04:39:15;;;;;;;15.50;8.68;;;10.40;99.90;;;;;;5026099;28;20124;-70
2022/08/07 04:41:41;;;;;;;13.43;8.05;;;10.30;99.90;;;;;;5043023;28;20127;-70
2022/08/07 04:44:07;;;;;;;15.60;8.75;;;10.30;99.90;;;;;;5073740;28;20040;-70
2022/08/07 04:46:58;;;;;;;13.05;7.75;;;10.20;99.90;;;;;;5044181;28;20120;-69
2022/08/07 04:49:49;;;;;;;18.83;9.63;;;10.20;99.90;;;;;;5042294;28;20034;-69
2022/08/07 04:52:23;;;;;;;14.48;8.43;;;10.10;99.90;;;;;;5044073;28;20037;-70
2022/08/07 04:54:58;;;;;;;15.43;8.80;;;10.10;99.90;;;;;;5043820;28;20551;-69
2022/08/07 04:58:01;;;;;;;13.93;9.27;;;10.10;99.90;;;;;;5077340;28;20421;-69
2022/08/07 05:00:52;;;;;;;16.02;8.68;;;10.00;99.90;;;;;;5061027;28;20103;-70
2022/08/07 05:03:40;;;;;;;15.75;8.38;;;10.10;99.90;;;;;;5055748;28;20091;-70
2022/08/07 05:06:22;;;;;;;13.00;8.32;;;10.10;99.90;;;;;;5074885;28;20540;-70
2022/08/07 05:09:01;;;;;;;;;;;10.10;99.90;;;;;;5042339;28;20037;-70
2022/08/07 05:11:32;;;;;;;12.80;8.43;;;10.20;99.90;;;;;;5039796;28;19921;-70
2022/08/07 05:14:26;;;;;;;18.50;10.60;;;10.30;99.90;;;;;;5042209;28;20059;-69
2022/08/07 05:16:56;;;;;;;18.38;10.68;;;10.30;99.90;;;;;;5043473;28;20044;-70
2022/08/07 05:19:24;;;;;;;18.65;10.30;;;10.30;99.90;;;;;;5041257;28;20172;-70
2022/08/07 05:21:54;;;;;;;18.40;10.00;;;10.30;99.90;;;;;;5073987;28;20040;-70
2022/08/07 05:24:21;;;;;;;18.70;10.18;;;10.40;99.90;;;;;;5040187;28;20037;-70
2022/08/07 05:26:50;;;;;;;16.48;9.77;;;10.50;99.90;;;;;;5042681;28;20041;-70
2022/08/07 05:29:18;;;;;;;16.90;10.35;;;10.60;99.90;;;;;;5039621;28;20409;-70
2022/08/07 05:31:46;;;;;;;19.48;11.25;;;10.70;99.90;;;;;;5042210;28;20084;-70
2022/08/07 05:34:15;;;;;;;18.73;11.52;;;10.70;99.90;;;;;;5025250;28;20048;-70
2022/08/07 05:36:45;;;;;;;17.15;10.75;;;10.80;99.90;;;;;;5041121;28;20440;-70
2022/08/07 05:39:14;;;;;;;20.70;11.05;;;10.90;99.90;;;;;;5041167;28;20502;-70
2022/08/07 05:41:41;;;;;;;17.70;10.93;;;11.00;99.90;;;;;;5038984;28;20498;-70
2022/08/07 05:44:09;;;;;;;18.27;10.85;;;11.10;99.90;;;;;;5043765;28;20044;-70
2022/08/07 05:46:37;;;;;;;17.65;10.38;;;11.20;99.90;;;;;;5045485;28;20055;-70
2022/08/07 05:49:08;;;;;;;24.77;12.05;;;11.30;99.90;;;;;;5075466;28;20052;-70
2022/08/07 05:51:34;;;;;;;21.65;11.18;;;11.40;99.90;;;;;;5042477;28;20047;-70
2022/08/07 05:54:00;;;;;;;22.52;13.27;;;11.50;99.90;;;;;;5037929;28;20762;-70
2022/08/07 05:56:28;;;;;;;20.77;12.15;;;11.50;99.90;;;;;;5039804;28;20041;-70
2022/08/07 05:58:55;;;;;;;25.45;13.05;;;11.70;99.90;;;;;;5042633;28;20040;-70
2022/08/07 06:01:22;;;;;;;19.83;11.95;;;11.70;99.90;;;;;;5038851;28;20060;-70
2022/08/07 06:03:52;;;;;;;22.95;13.65;;;11.80;99.90;;;;;;5041432;28;20050;-70
2022/08/07 06:06:19;;;;;;;23.80;13.57;;;11.90;99.90;;;;;;5037754;28;20060;-70
2022/08/07 06:08:45;;;;;;;23.40;12.98;;;12.00;99.90;;;;;;5041918;28;20163;-70
2022/08/07 06:11:12;;;;;;;22.02;12.85;;;12.10;99.90;;;;;;5058659;28;20530;-70
2022/08/07 06:13:38;;;;;;;22.25;12.63;;;12.20;99.90;;;;;;5042238;28;20072;-70
2022/08/07 06:16:06;;;;;;;20.30;11.85;;;12.30;99.90;;;;;;5040919;28;20120;-70
2022/08/07 06:18:33;;;;;;;18.77;11.95;;;12.30;99.90;;;;;;5036385;28;20040;-70
2022/08/07 06:21:00;;;;;;;22.30;12.13;;;12.50;99.90;;;;;;5053966;28;20430;-70
2022/08/07 06:23:27;;;;;;;22.50;12.73;;;12.50;99.90;;;;;;5042503;28;20055;-70
2022/08/07 06:25:53;;;;;;;23.55;13.05;;;12.70;99.90;;;;;;5058362;28;20191;-71
2022/08/07 06:28:19;;;;;;;22.05;12.05;;;12.70;99.90;;;;;;5037630;28;20085;-71
2022/08/07 06:30:44;;;;;;;24.75;14.27;;;12.80;99.90;;;;;;5062045;28;20525;-70
2022/08/07 06:33:10;;;;;;;23.80;13.27;;;12.90;99.90;;;;;;5060039;28;20086;-70
2022/08/07 06:35:36;;;;;;;23.17;14.65;;;13.00;99.90;;;;;;5041333;28;20036;-71
2022/08/07 06:38:06;;;;;;;23.30;13.02;;;13.20;99.90;;;;;;5043704;28;20125;-71
2022/08/07 06:40:42;;;;;;;20.90;12.50;;;13.30;99.90;;;;;;5033720;28;20068;-70
2022/08/07 06:43:10;;;;;;;24.92;13.00;;;13.50;99.90;;;;;;5039192;28;20033;-70
2022/08/07 06:45:36;;;;;;;21.80;13.63;;;13.60;99.90;;;;;;5072145;28;20115;-71
2022/08/07 06:48:05;;;;;;;22.88;13.05;;;13.70;99.90;;;;;;5036718;28;20045;-71
2022/08/07 06:50:33;;;;;;;18.90;12.35;;;13.90;99.90;;;;;;5038183;28;20055;-71
2022/08/07 06:53:01;;;;;;;19.42;11.27;;;14.00;99.90;;;;;;5071080;28;20256;-71
2022/08/07 06:55:30;;;;;;;16.00;11.52;;;14.10;99.90;;;;;;5042183;28;20037;-71
2022/08/07 06:57:59;;;;;;;18.00;10.73;;;14.30;99.90;;;;;;5041291;28;20037;-70
2022/08/07 07:00:29;;;;;;;17.58;10.20;;;14.40;99.90;;;;;;5041857;28;20264;-70
2022/08/07 07:02:56;;;;;;;19.92;11.13;;;14.60;99.90;;;;;;5023881;28;20070;-71
2022/08/07 07:05:22;;;;;;;17.30;11.05;;;14.70;99.90;;;;;;5029011;28;20128;-70
2022/08/07 07:07:47;;;;;;;14.95;9.68;;;14.90;99.90;;;;;;5010641;28;20162;-71
2022/08/07 07:10:14;;;;;;;18.40;11.27;;;15.10;99.90;;;;;;5055931;28;20553;-71
2022/08/07 07:12:50;;;;;;;17.08;11.00;;;15.20;99.90;;;;;;5035176;28;20369;-71
2022/08/07 07:15:22;;;;;;;14.45;10.20;;;15.40;99.90;;;;;;5032223;28;20053;-71
2022/08/07 07:18:16;;;;;;;13.15;8.25;;;15.60;99.90;;;;;;5044890;28;20419;-71
2022/08/07 07:20:48;;;;;;;15.32;9.55;;;15.80;99.90;;;;;;5030589;28;20426;-71
2022/08/07 07:23:14;;;;;;;14.45;9.23;;;16.00;99.90;;;;;;5039269;28;20052;-71
2022/08/07 07:25:43;;;;;;;12.88;9.30;;;16.30;99.90;;;;;;5042096;28;20073;-71
2022/08/07 07:28:17;;;;;;;10.98;7.43;;;16.50;99.90;;;;;;5075573;28;20037;-71
2022/08/07 07:30:49;;;;;;;9.82;6.70;;;16.60;99.90;;;;;;5035285;28;20048;-71
2022/08/07 07:33:16;;;;;;;;;;;16.90;99.90;;;;;;5035976;28;20215;-71
2022/08/07 07:35:44;;;;;;;9.95;6.57;;;17.00;99.90;;;;;;5042131;28;19943;-71
2022/08/07 07:38:12;;;;;;;11.05;6.55;;;17.20;99.90;;;;;;5039414;28;20033;-71
2022/08/07 07:40:40;;;;;;;8.18;5.68;;;17.40;99.90;;;;;;5031251;28;20106;-71
2022/08/07 07:43:07;;;;;;;7.15;6.10;;;17.70;99.90;;;;;;5021256;28;20425;-72
2022/08/07 07:45:33;;;;;;;8.30;6.13;;;17.90;99.90;;;;;;5035653;28;20051;-72
2022/08/07 07:48:02;;;;;;;6.65;5.38;;;18.10;99.90;;;;;;5027664;28;20114;-72
2022/08/07 07:50:30;;;;;;;8.90;6.15;;;18.30;99.90;;;;;;5034581;28;20064;-71
2022/08/07 07:52:57;;;;;;;7.00;6.03;;;18.50;99.90;;;;;;5071217;28;20047;-72
2022/08/07 07:55:24;;;;;;;10.07;5.90;;;18.70;99.90;;;;;;5028296;28;20120;-73
2022/08/07 07:57:51;;;;;;;9.30;5.97;;;18.80;99.90;;;;;;5044845;28;20510;-72
2022/08/07 08:00:17;;;;;;;7.57;6.53;;;18.90;99.90;;;;;;5067881;28;20433;-72
2022/08/07 08:02:46;;;;;;;8.07;6.30;;;19.10;99.90;;;;;;5060184;28;20069;-72
2022/08/07 08:05:15;;;;;;;9.10;6.05;;;19.20;99.90;;;;;;5076543;28;20498;-72
2022/08/07 08:07:42;;;;;;;15.02;6.88;;;19.30;99.90;;;;;;5059153;28;20049;-73
2022/08/07 08:10:10;;;;;;;8.23;5.45;;;19.50;99.90;;;;;;5055002;28;20042;-72
2022/08/07 08:12:36;;;;;;;8.70;6.40;;;19.50;99.90;;;;;;5038265;28;20088;-73
2022/08/07 08:15:03;;;;;;;7.00;5.32;;;19.60;99.90;;;;;;5027687;28;20174;-71
2022/08/07 08:17:33;;;;;;;6.88;5.47;;;19.60;99.90;;;;;;5078006;28;20313;-72
2022/08/07 08:20:03;;;;;;;10.52;5.70;;;19.60;99.90;;;;;;5027703;28;20654;-72
2022/08/07 08:34:39;;;;;;;7.22;5.55;;;20.10;99.30;;;;;;5012175;28;20087;-73
2022/08/07 08:37:11;;;;;;;7.70;5.72;;;20.10;98.50;;;;;;5023738;28;20037;-73
2022/08/07 08:39:39;;;;;;;7.77;5.00;;;20.30;99.40;;;;;;5026551;28;20136;-73
2022/08/07 08:51:31;;;;;;;7.88;5.88;;;20.60;98.50;;;;;;5024372;28;20061;-72
2022/08/07 08:54:29;;;;;;;7.95;5.00;;;20.60;96.30;;;;;;5008081;28;20391;-71
2022/08/07 08:56:58;;;;;;;8.35;4.93;;;20.60;97.70;;;;;;4992055;28;20466;-71
2022/08/07 08:59:31;;;;;;;10.02;5.53;;;20.70;97.50;;;;;;5022887;28;20079;-71
2022/08/07 09:02:09;;;;;;;7.85;4.85;;;20.70;96.90;;;;;;5018269;28;20076;-71
2022/08/07 09:13:29;;;;;;;5.40;4.30;;;21.20;94.90;;;;;;5030623;28;20041;-72
2022/08/07 09:16:13;;;;;;;6.60;4.95;;;21.10;95.30;;;;;;4997615;28;20092;-72
2022/08/07 09:21:31;;;;;;;8.27;4.80;;;21.30;96.10;;;;;;5019667;28;20123;-73
2022/08/07 09:24:23;;;;;;;6.43;4.68;;;21.40;95.60;;;;;;4990954;28;20046;-72
2022/08/07 09:27:08;;;;;;;6.75;4.35;;;21.40;94.60;;;;;;4998177;28;20050;-72
2022/08/07 09:29:49;;;;;;;6.60;4.18;;;21.50;95.00;;;;;;4970460;28;20484;-73
2022/08/07 09:33:06;;;;;;;5.28;3.78;;;21.60;94.20;;;;;;4997664;28;20049;-73
2022/08/07 09:35:56;;;;;;;5.78;3.78;;;21.70;93.90;;;;;;4924626;28;20525;-73
2022/08/07 09:38:35;;;;;;;4.30;3.58;;;21.70;93.90;;;;;;5012726;28;20033;-72
2022/08/07 09:41:16;;;;;;;5.40;3.50;;;21.90;93.90;;;;;;4995079;28;20056;-72
2022/08/07 09:43:57;;;;;;;7.00;4.20;;;21.90;92.80;;;;;;4999453;28;20050;-73
2022/08/07 09:46:32;;;;;;;4.65;3.85;;;22.00;92.50;;;;;;4962104;28;20057;-73
2022/08/07 09:49:14;;;;;;;5.18;3.40;;;22.00;92.20;;;;;;4959597;28;20355;-73
2022/08/07 09:51:59;;;;;;;5.40;4.07;;;22.00;92.40;;;;;;4992959;28;20546;-73
2022/08/07 09:54:53;;;;;;;5.05;3.60;;;22.10;91.60;;;;;;4977389;28;20363;-73
2022/08/07 09:58:01;;;;;;;5.65;4.13;;;22.30;92.10;;;;;;4984905;28;20050;-73
2022/08/07 10:00:42;;;;;;;5.15;3.30;;;22.50;92.00;;;;;;4979359;28;20038;-73
2022/08/07 10:03:36;;;;;;;4.35;3.53;;;22.70;92.00;;;;;;5000260;28;20044;-73
2022/08/07 10:06:20;;;;;;;4.15;3.63;;;22.80;91.00;;;;;;5014251;28;20108;-72
2022/08/07 10:09:04;;;;;;;4.68;3.53;;;22.90;91.40;;;;;;4980585;28;20045;-73
2022/08/07 10:11:48;;;;;;;6.15;3.80;;;22.90;90.40;;;;;;4977449;28;20034;-74
2022/08/07 10:14:30;;;;;;;6.82;3.92;;;22.60;90.50;;;;;;4994040;28;20088;-73
2022/08/07 10:17:27;;;;;;;5.88;4.25;;;22.50;90.80;;;;;;4990479;28;20491;-73
2022/08/07 10:20:34;;;;;;;4.72;3.63;;;22.60;90.90;;;;;;4999893;28;20406;-72
2022/08/07 10:23:20;;;;;;;5.75;3.40;;;22.60;90.70;;;;;;4977755;28;20559;-74
2022/08/07 10:25:55;;;;;;;7.03;3.30;;;22.60;87.50;;;;;;4978609;28;20042;-72
2022/08/07 10:28:44;;;;;;;3.83;3.40;;;22.30;89.90;;;;;;4978509;28;20068;-73
2022/08/07 10:31:25;;;;;;;4.65;3.22;;;22.40;89.00;;;;;;5005170;28;20069;-76
2022/08/07 10:34:15;;;;;;;5.75;3.60;;;22.50;88.50;;;;;;4988344;28;20112;-75
2022/08/07 10:36:53;;;;;;;4.63;3.28;;;22.70;86.90;;;;;;4994298;28;20127;-75
2022/08/07 10:39:36;;;;;;;3.80;2.90;;;23.00;86.40;;;;;;4977701;28;20030;-75
2022/08/07 10:42:04;;;;;;;;;;;23.20;87.90;;;;;;4978778;28;20108;-75
2022/08/07 10:44:51;;;;;;;8.32;3.58;;;23.40;88.20;;;;;;4993950;28;20456;-75
2022/08/07 10:47:35;;;;;;;5.28;3.13;;;23.70;87.70;;;;;;4994216;28;20516;-75
2022/08/07 10:50:11;;;;;;;4.43;3.13;;;23.70;87.00;;;;;;5002289;28;20053;-75
2022/08/07 10:53:02;;;;;;;3.67;3.20;;;23.70;87.10;;;;;;4984891;28;20169;-75
2022/08/07 10:55:42;;;;;;;3.63;2.92;;;23.60;85.90;;;;;;4992357;28;20042;-75
2022/08/07 10:58:34;;;;;;;4.18;3.20;;;23.60;86.70;;;;;;4995447;28;20065;-76
2022/08/07 11:01:17;;;;;;;4.35;3.00;;;23.70;84.90;;;;;;4977617;28;20042;-75
2022/08/07 11:04:34;;;;;;;6.10;3.10;;;23.50;85.10;;;;;;4993991;28;20073;-76
2022/08/07 11:07:06;;;;;;;3.53;2.97;;;23.70;82.40;;;;;;4960649;28;20061;-74
2022/08/07 11:09:38;;;;;;;5.10;2.80;;;23.80;82.90;;;;;;4993560;28;20104;-75
2022/08/07 11:12:43;;;;;;;5.20;3.03;;;23.90;84.60;;;;;;4986861;28;20066;-75
2022/08/07 11:15:16;;;;;;;5.05;3.00;;;24.00;81.40;;;;;;4972494;28;20134;-75
2022/08/07 11:17:50;;;;;;;4.93;2.85;;;23.90;80.20;;;;;;4993520;28;20104;-75
2022/08/07 11:20:21;;;;;;;2.83;2.55;;;24.10;81.20;;;;;;4977179;28;20514;-75
2022/08/07 11:23:10;;;;;;;3.63;2.60;;;24.20;82.20;;;;;;4994560;28;20050;-75
2022/08/07 11:25:41;;;;;;;4.22;2.70;;;24.30;80.80;;;;;;4979390;28;20620;-76
2022/08/07 11:28:19;;;;;;;5.07;2.88;;;24.50;82.10;;;;;;4986340;28;20045;-72
2022/08/07 11:30:53;;;;;;;3.85;2.60;;;24.60;78.50;;;;;;4987053;28;20451;-72
2022/08/07 11:34:01;;;;;;;3.05;2.53;;;24.70;78.60;;;;;;4973243;28;20029;-73
2022/08/07 11:36:48;;;;;;;3.22;2.90;;;24.80;79.40;;;;;;4954412;28;20085;-73
2022/08/07 11:39:22;;;;;;;3.70;2.92;;;24.90;80.00;;;;;;4936262;28;20030;-73
2022/08/07 11:42:00;;;;;;;3.83;2.97;;;25.00;79.30;;;;;;4977041;28;20120;-72
2022/08/07 11:44:49;;;;;;;3.30;2.60;;;24.90;78.20;;;;;;4988967;28;20053;-73
2022/08/07 11:47:21;;;;;;;3.72;2.80;;;24.80;77.70;;;;;;4988290;28;20331;-72
2022/08/07 11:50:10;;;;;;;2.80;2.53;;;24.70;78.70;;;;;;5014744;28;20199;-73
2022/08/07 11:53:05;;;;;;;3.35;2.75;;;24.90;77.30;;;;;;4983656;28;20045;-73
2022/08/07 11:56:08;;;;;;;5.18;2.50;;;25.00;76.10;;;;;;4969471;28;20061;-72
2022/08/07 11:58:54;;;;;;;3.13;2.40;;;25.00;75.20;;;;;;4967768;28;20093;-73
2022/08/07 12:01:23;;;;;;;3.00;2.40;;;24.90;75.00;;;;;;4975284;28;20491;-72
2022/08/07 12:04:09;;;;;;;2.95;2.45;;;24.90;75.90;;;;;;5005628;28;20044;-72
2022/08/07 12:06:48;;;;;;;3.72;2.80;;;24.80;75.40;;;;;;4989174;28;20045;-72
2022/08/07 12:09:34;;;;;;;3.47;2.75;;;24.90;75.60;;;;;;4995506;28;20107;-72
2022/08/07 12:12:07;;;;;;;3.90;2.35;;;24.90;75.50;;;;;;5006015;28;20045;-73
2022/08/07 12:14:50;;;;;;;4.35;2.53;;;24.90;75.00;;;;;;4974125;28;20108;-73
2022/08/07 12:17:19;;;;;;;3.60;2.67;;;24.90;76.80;;;;;;4980607;28;20038;-72
2022/08/07 12:20:04;;;;;;;2.63;2.30;;;24.70;76.30;;;;;;4978851;28;20048;-72
2022/08/07 12:23:05;;;;;;;3.22;2.33;;;24.40;75.70;;;;;;4990502;28;20050;-72
2022/08/07 12:25:51;;;;;;;2.88;2.30;;;24.30;76.60;;;;;;4968078;28;20099;-73
2022/08/07 12:28:43;;;;;;;7.30;2.25;;;24.10;76.60;;;;;;4986789;28;20054;-73
2022/08/07 12:31:18;;;;;;;7.10;2.57;;;24.20;76.00;;;;;;4984975;28;20057;-72
2022/08/07 12:33:46;;;;;;;3.33;2.58;;;24.40;76.00;;;;;;4988557;28;20319;-72
2022/08/07 12:36:13;;;;;;;2.90;2.17;;;24.70;76.20;;;;;;4989153;28;20057;-72
2022/08/07 12:38:41;;;;;;;2.97;2.42;;;24.90;75.30;;;;;;5008436;28;20034;-73
2022/08/07 12:41:09;;;;;;;3.92;2.78;;;24.70;74.80;;;;;;4991737;28;20554;-73
2022/08/07 12:43:38;;;;;;;5.35;2.72;;;24.50;75.00;;;;;;4981923;28;20167;-72
2022/08/07 12:46:23;;;;;;;3.20;2.40;;;24.30;75.30;;;;;;5001378;28;20121;-71
2022/08/07 12:49:04;;;;;;;3.38;2.45;;;24.20;75.40;;;;;;5007335;28;20064;-72
2022/08/07 12:51:41;;;;;;;5.67;2.50;;;24.00;75.50;;;;;;4977848;28;20443;-71
2022/08/07 12:54:39;;;;;;;2.63;2.25;;;23.80;76.00;;;;;;4981039;28;20364;-73
2022/08/07 12:57:06;;;;;;;5.63;2.30;;;23.70;74.90;;;;;;5009381;28;20068;-72
2022/08/07 12:59:35;;;;;;;4.30;2.70;;;23.60;75.40;;;;;;5021738;28;20033;-73
2022/08/07 13:03:03;;;;;;;3.47;2.15;;;23.50;74.90;;;;;;5004650;28;20042;-72
2022/08/07 13:05:47;;;;;;;2.58;2.03;;;23.60;75.70;;;;;;4921769;29;20074;-74
2022/08/07 13:08:58;;;;;;;2.65;2.15;;;24.00;76.10;;;;;;4949640;29;20077;-73
2022/08/07 13:11:51;;;;;;;3.65;2.03;;;24.40;75.00;;;;;;4972951;28;20046;-73
2022/08/07 13:14:54;;;;;;;3.28;2.08;;;24.70;73.40;;;;;;4983515;28;20115;-76
2022/08/07 13:17:29;;;;;;;2.47;1.98;;;24.90;72.30;;;;;;4975034;28;20065;-76
2022/08/07 13:19:58;;;;;;;2.05;1.63;;;25.10;71.90;;;;;;4987478;28;20126;-75
2022/08/07 13:22:36;;;;;;;2.97;1.67;;;25.20;72.00;;;;;;5007957;28;20573;-76
2022/08/07 13:25:09;;;;;;;2.63;1.80;;;25.30;71.40;;;;;;4983846;28;20084;-77
2022/08/07 13:27:43;;;;;;;4.40;2.17;;;25.20;71.10;;;;;;4986767;28;20105;-77
2022/08/07 13:30:13;;;;;;;6.35;2.22;;;25.00;71.60;;;;;;4981149;28;20440;-78
2022/08/07 13:33:03;;;;;;;2.70;1.60;;;25.10;71.30;;;;;;4981170;28;20133;-77
2022/08/07 13:35:36;;;;;;;2.42;1.60;;;25.40;70.90;;;;;;4975335;28;20428;-76
2022/08/07 13:38:05;;;;;;;3.50;2.03;;;25.60;70.90;;;;;;4976893;28;20038;-76
2022/08/07 13:40:38;;;;;;;3.42;1.75;;;25.80;70.40;;;;;;4990373;28;20486;-75
2022/08/07 13:43:06;;;;;;;4.60;1.60;;;25.60;69.70;;;;;;4990686;28;20513;-75
2022/08/07 13:45:34;;;;;;;2.63;1.52;;;25.20;70.90;;;;;;4986827;28;20377;-75